Maersk Dispatcher — XJAJ — position and weather

sailwx.info

Track history (hours):
 
Tides and Currents Weather Stations Pressure Air Temp Water Temp Dewpoint Dewpoint Depression Visibility Wind Speed Wind Dir Waves Ship Positions

Maersk Dispatcher

Last reported at 2018-Jun-18 01:57 UTC. Time now 2018-Jun-18 02:14 UTC.
Position N 47°34' W 052°42'.

Length 89 m; draft 7 m.

Type: Other ship. MMSI: 316013080.

Date/timePositionNaut miles runAvg speedWind from/ knotsBaromVisibWave heightAir tempDewpointWater temp
2018-Jun-18 01:57N 47°34' W 052°42'0 0.0
2018-Jun-18 01:27N 47°34' W 052°42'0 0.0
2018-Jun-18 00:57N 47°34' W 052°42'0 0.0
2018-Jun-18 00:15N 47°34' W 052°42'0 0.7
2018-Jun-17 23:51N 47°34' W 052°42'0 0.3
2018-Jun-17 23:29N 47°34' W 052°42'0 0.0
2018-Jun-17 22:58N 47°34' W 052°42'0 0.0
2018-Jun-17 22:27N 47°34' W 052°42'0 0.0
2018-Jun-17 21:56N 47°34' W 052°42'0 0.0
2018-Jun-17 21:26N 47°34' W 052°42'0 0.0
2018-Jun-17 21:00N 47°34' W 052°42'0 0.0
2018-Jun-17 20:30N 47°34' W 052°42'0 0.0
2018-Jun-17 19:59N 47°34' W 052°42'0 0.0
2018-Jun-17 19:29N 47°34' W 052°42'0 0.0
2018-Jun-17 18:58N 47°34' W 052°42'0 0.0
2018-Jun-17 18:26N 47°34' W 052°42'1 1.6
2018-Jun-17 17:56N 47°34' W 052°41'4 9.9
2018-Jun-17 17:30N 47°37' W 052°36'0 0.6
2018-Jun-17 16:59N 47°37' W 052°36'1 1.3
2018-Jun-17 16:29N 47°36' W 052°36'0 0.3
2018-Jun-17 15:59N 47°36' W 052°36'1 2.1
2018-Jun-17 15:28N 47°36' W 052°38'0 0.3
2018-Jun-17 14:57N 47°35' W 052°38'0 0.1
2018-Jun-17 14:27N 47°35' W 052°38'0 0.6
2018-Jun-17 13:57N 47°35' W 052°37'3 5.6
2018-Jun-17 13:21N 47°34' W 052°42'0 0.0
2018-Jun-17 12:57N 47°34' W 052°42'0 0.0
2018-Jun-17 12:30N 47°34' W 052°42'0 0.0
2018-Jun-17 11:54N 47°34' W 052°42'0 0.0
2018-Jun-17 11:30N 47°34' W 052°42'0 0.0
2018-Jun-17 11:00N 47°34' W 052°42'0 0.0
2018-Jun-17 10:24N 47°34' W 052°42'0 0.0
2018-Jun-17 10:00N 47°34' W 052°42'0 0.0
2018-Jun-17 09:30N 47°34' W 052°42'0 0.0
2018-Jun-17 08:51N 47°34' W 052°42'0 0.0
2018-Jun-17 08:27N 47°34' W 052°42'0 0.0
2018-Jun-17 08:00N 47°34' W 052°42'0 0.0
2018-Jun-17 07:27N 47°34' W 052°42'0 0.0
2018-Jun-17 07:00N 47°34' W 052°42'0 0.0
2018-Jun-17 06:30N 47°34' W 052°42'0 0.0
2018-Jun-17 05:57N 47°34' W 052°42'0 0.0
2018-Jun-17 05:21N 47°34' W 052°42'0 0.0
2018-Jun-17 04:57N 47°34' W 052°42'0 0.0
2018-Jun-17 04:24N 47°34' W 052°42'0 0.0
2018-Jun-17 04:00N 47°34' W 052°42'0 0.0
2018-Jun-17 03:27N 47°34' W 052°42'0 0.0
2018-Jun-17 02:51N 47°34' W 052°42'0 0.0
2018-Jun-17 02:27N 47°34' W 052°42'0 0.0
2018-Jun-17 02:00N 47°34' W 052°42'0 0.0
2018-Jun-17 01:30N 47°34' W 052°42'0 0.0
2018-Jun-17 00:48N 47°34' W 052°42'0 0.0
2018-Jun-17 00:27N 47°34' W 052°42'0 0.0
2018-Jun-16 23:57N 47°34' W 052°42'0 0.0
2018-Jun-16 23:27N 47°34' W 052°42'0 0.0
2018-Jun-16 22:57N 47°34' W 052°42'0 0.0
2018-Jun-16 22:27N 47°34' W 052°42'0 0.0
2018-Jun-16 21:57N 47°34' W 052°42'0 0.0
2018-Jun-16 21:21N 47°34' W 052°42'0 0.0
2018-Jun-16 20:51N 47°34' W 052°42'0 0.0
2018-Jun-16 17:27N 47°34' W 052°42'0 0.0
2018-Jun-16 17:00N 47°34' W 052°42'0 0.0
2018-Jun-16 16:30N 47°34' W 052°42'0 0.0
2018-Jun-16 16:00N 47°34' W 052°42'0 0.0
2018-Jun-16 15:21N 47°34' W 052°42'0 0.0
2018-Jun-16 15:00N 47°34' W 052°42'0 0.0
2018-Jun-16 14:24N 47°34' W 052°42'0 0.0
2018-Jun-16 13:03N 47°34' W 052°42'0 0.0
2018-Jun-16 12:57N 47°34' W 052°42'0 0.0
2018-Jun-16 11:57N 47°34' W 052°42'0 0.0
2018-Jun-16 11:30N 47°34' W 052°42'0 0.0
2018-Jun-16 10:54N 47°34' W 052°42'0 0.0
2018-Jun-16 10:27N 47°34' W 052°42'0 0.0
2018-Jun-16 09:57N 47°34' W 052°42'0 0.0
2018-Jun-16 09:24N 47°34' W 052°42'0 0.0
2018-Jun-16 09:00N 47°34' W 052°42'0 0.0
2018-Jun-16 08:30N 47°34' W 052°42'0 0.0
2018-Jun-16 07:54N 47°34' W 052°42'0 0.0
2018-Jun-16 07:27N 47°34' W 052°42'0 0.0
2018-Jun-16 06:57N 47°34' W 052°42'0 0.0
2018-Jun-16 06:30N 47°34' W 052°42'0 0.0
2018-Jun-16 05:57N 47°34' W 052°42'0 0.0
2018-Jun-16 05:27N 47°34' W 052°42'0 0.0
2018-Jun-16 05:00N 47°34' W 052°42'0 0.0
2018-Jun-16 04:30N 47°34' W 052°42'0 0.0
2018-Jun-16 04:00N 47°34' W 052°42'0 0.0
2018-Jun-16 03:27N 47°34' W 052°42'0 0.0
2018-Jun-16 02:57N 47°34' W 052°42'0 0.0
2018-Jun-16 02:24N 47°34' W 052°42'0 0.0
2018-Jun-16 02:00N 47°34' W 052°42'0 0.0
2018-Jun-16 01:30N 47°34' W 052°42'0 0.0
2018-Jun-16 01:00N 47°34' W 052°42'0 0.0
2018-Jun-16 00:24N 47°34' W 052°42'0 0.0
2018-Jun-16 00:00N 47°34' W 052°42'0 0.0
2018-Jun-15 23:24N 47°34' W 052°42'0 0.0
2018-Jun-15 23:00N 47°34' W 052°42'0 0.0
2018-Jun-15 22:30N 47°34' W 052°42'0 0.0
2018-Jun-15 21:03N 47°34' W 052°42'0 0.0
2018-Jun-15 20:57N 47°34' W 052°42'0 0.0
2018-Jun-15 20:12N 47°34' W 052°42'0 0.0
2018-Jun-15 19:42N 47°34' W 052°42'0 0.0
2018-Jun-15 19:30N 47°34' W 052°42'0 0.0
2018-Jun-15 19:00N 47°34' W 052°42'0 0.0
2018-Jun-15 16:24N 47°34' W 052°42'0 0.0
2018-Jun-15 15:57N 47°34' W 052°42'0 0.0
2018-Jun-15 15:21N 47°34' W 052°42'0 0.0
2018-Jun-15 14:57N 47°34' W 052°42'0 0.0
2018-Jun-15 14:30N 47°34' W 052°42'0 0.0
2018-Jun-15 14:00N 47°34' W 052°42'0 0.0
2018-Jun-15 13:27N 47°34' W 052°42'0 0.0
2018-Jun-15 13:00N 47°34' W 052°42'0 0.1
2018-Jun-15 12:24N 47°34' W 052°42'0 0.2
2018-Jun-15 12:00N 47°34' W 052°42'0 0.0
2018-Jun-15 11:30N 47°34' W 052°42'0 0.0
2018-Jun-15 11:00N 47°34' W 052°42'0 0.0
2018-Jun-15 10:30N 47°34' W 052°42'1 1.4
2018-Jun-15 09:59N 47°34' W 052°41'510.5
2018-Jun-15 09:29N 47°34' W 052°33'611.0
2018-Jun-15 08:58N 47°33' W 052°25'612.1
2018-Jun-15 08:28N 47°32' W 052°16'  
2018-Jun-12 23:21N 47°34' W 051°59'513.1
2018-Jun-12 22:57N 47°34' W 052°07'613.2
2018-Jun-12 22:31N 47°34' W 052°15'713.1
2018-Jun-12 22:00N 47°34' W 052°25'712.8
2018-Jun-12 21:29N 47°34' W 052°35'5 7.8
2018-Jun-12 20:53N 47°34' W 052°42'0 0.0
2018-Jun-12 20:29N 47°34' W 052°42'0 0.0
2018-Jun-12 19:59N 47°34' W 052°42'0 0.0
2018-Jun-12 19:26N 47°34' W 052°42'0 0.0
2018-Jun-12 19:00N 47°34' W 052°42'0 0.0
2018-Jun-12 18:29N 47°34' W 052°42'0 0.0
2018-Jun-12 17:59N 47°34' W 052°42'0 0.0
2018-Jun-12 17:29N 47°34' W 052°42'0 0.0
2018-Jun-12 16:58N 47°34' W 052°42'0 0.0
2018-Jun-12 16:27N 47°34' W 052°42'0 0.0
2018-Jun-12 15:56N 47°34' W 052°42'0 0.0
2018-Jun-12 15:25N 47°34' W 052°42'0 0.0
2018-Jun-12 15:00N 47°34' W 052°42'0 0.7
2018-Jun-12 14:29N 47°34' W 052°42'611.8
2018-Jun-12 13:57N 47°33' W 052°32'612.7
2018-Jun-12 13:27N 47°33' W 052°23'  
2018-Jun-08 22:44N 47°34' W 051°60'413.0
2018-Jun-08 22:26N 47°34' W 052°06'612.9
2018-Jun-08 22:00N 47°34' W 052°14'612.6
2018-Jun-08 21:29N 47°34' W 052°23'712.7
2018-Jun-08 20:54N 47°34' W 052°34'511.5
2018-Jun-08 20:29N 47°34' W 052°42'0 0.6
2018-Jun-08 19:58N 47°34' W 052°42'0 0.0
2018-Jun-08 19:28N 47°34' W 052°42'0 0.0
2018-Jun-08 18:52N 47°34' W 052°42'0 0.0
2018-Jun-08 18:28N 47°34' W 052°42'0 0.0
2018-Jun-08 17:58N 47°34' W 052°42'0 0.0
2018-Jun-08 17:28N 47°34' W 052°42'0 0.0
2018-Jun-08 16:58N 47°34' W 052°42'0 0.0
2018-Jun-08 16:19N 47°34' W 052°42'0 0.0
2018-Jun-08 15:55N 47°34' W 052°42'0 0.0
2018-Jun-08 15:28N 47°34' W 052°42'0 0.0
2018-Jun-08 14:55N 47°34' W 052°42'0 0.0
2018-Jun-08 14:22N 47°34' W 052°42'0 0.0
2018-Jun-08 13:58N 47°34' W 052°42'0 0.0
2018-Jun-08 13:28N 47°34' W 052°42'0 0.0
2018-Jun-08 12:46N 47°34' W 052°42'0 0.0
2018-Jun-08 12:25N 47°34' W 052°42'0 0.0
2018-Jun-08 11:55N 47°34' W 052°42'0 0.0
2018-Jun-08 11:28N 47°34' W 052°42'0 0.0
2018-Jun-08 10:58N 47°34' W 052°42'0 0.0
2018-Jun-08 10:22N 47°34' W 052°42'0 0.0
2018-Jun-08 09:58N 47°34' W 052°42'0 0.0
2018-Jun-08 09:28N 47°34' W 052°42'0 0.0
2018-Jun-08 08:58N 47°34' W 052°42'0 0.0
2018-Jun-08 08:28N 47°34' W 052°42'0 0.0
2018-Jun-08 07:55N 47°34' W 052°42'0 0.0
2018-Jun-08 07:28N 47°34' W 052°42'0 0.0
2018-Jun-08 06:58N 47°34' W 052°42'0 0.0
2018-Jun-08 06:28N 47°34' W 052°42'0 0.0
2018-Jun-08 05:58N 47°34' W 052°42'0 0.0
2018-Jun-08 05:28N 47°34' W 052°42'0 0.0
2018-Jun-08 04:58N 47°34' W 052°42'0 0.0
2018-Jun-08 04:28N 47°34' W 052°42'0 0.0
2018-Jun-08 03:55N 47°34' W 052°42'0 0.0
2018-Jun-08 03:25N 47°34' W 052°42'0 0.0
2018-Jun-08 02:58N 47°34' W 052°42'0 0.0
2018-Jun-08 02:28N 47°34' W 052°42'0 0.0
2018-Jun-08 01:58N 47°34' W 052°42'  
Track history (hours):
 
Tides and Currents Weather Stations Pressure Air Temp Water Temp Dewpoint Dewpoint Depression Visibility Wind Speed Wind Dir Waves Ship Positions

Maersk Dispatcher

Last reported at 2018-Jun-18 01:57 UTC. Time now 2018-Jun-18 02:14 UTC.
Position N 47°34' W 052°42'.

Length 89 m; draft 7 m.

Type: Other ship. MMSI: 316013080.

Date/timePositionNaut miles runAvg speedWind from/ knotsBaromVisibWave heightAir tempDewpointWater temp
2018-Jun-18 01:57N 47°34' W 052°42'0 0.0
2018-Jun-18 01:27N 47°34' W 052°42'0 0.0
2018-Jun-18 00:57N 47°34' W 052°42'0 0.0
2018-Jun-18 00:15N 47°34' W 052°42'0 0.7
2018-Jun-17 23:51N 47°34' W 052°42'0 0.3
2018-Jun-17 23:29N 47°34' W 052°42'0 0.0
2018-Jun-17 22:58N 47°34' W 052°42'0 0.0
2018-Jun-17 22:27N 47°34' W 052°42'0 0.0
2018-Jun-17 21:56N 47°34' W 052°42'0 0.0
2018-Jun-17 21:26N 47°34' W 052°42'0 0.0
2018-Jun-17 21:00N 47°34' W 052°42'0 0.0
2018-Jun-17 20:30N 47°34' W 052°42'0 0.0
2018-Jun-17 19:59N 47°34' W 052°42'0 0.0
2018-Jun-17 19:29N 47°34' W 052°42'0 0.0
2018-Jun-17 18:58N 47°34' W 052°42'0 0.0
2018-Jun-17 18:26N 47°34' W 052°42'1 1.6
2018-Jun-17 17:56N 47°34' W 052°41'4 9.9
2018-Jun-17 17:30N 47°37' W 052°36'0 0.6
2018-Jun-17 16:59N 47°37' W 052°36'1 1.3
2018-Jun-17 16:29N 47°36' W 052°36'0 0.3
2018-Jun-17 15:59N 47°36' W 052°36'1 2.1
2018-Jun-17 15:28N 47°36' W 052°38'0 0.3
2018-Jun-17 14:57N 47°35' W 052°38'0 0.1
2018-Jun-17 14:27N 47°35' W 052°38'0 0.6
2018-Jun-17 13:57N 47°35' W 052°37'3 5.6
2018-Jun-17 13:21N 47°34' W 052°42'0 0.0
2018-Jun-17 12:57N 47°34' W 052°42'0 0.0
2018-Jun-17 12:30N 47°34' W 052°42'0 0.0
2018-Jun-17 11:54N 47°34' W 052°42'0 0.0
2018-Jun-17 11:30N 47°34' W 052°42'0 0.0
2018-Jun-17 11:00N 47°34' W 052°42'0 0.0
2018-Jun-17 10:24N 47°34' W 052°42'0 0.0
2018-Jun-17 10:00N 47°34' W 052°42'0 0.0
2018-Jun-17 09:30N 47°34' W 052°42'0 0.0
2018-Jun-17 08:51N 47°34' W 052°42'0 0.0
2018-Jun-17 08:27N 47°34' W 052°42'0 0.0
2018-Jun-17 08:00N 47°34' W 052°42'0 0.0
2018-Jun-17 07:27N 47°34' W 052°42'0 0.0
2018-Jun-17 07:00N 47°34' W 052°42'0 0.0
2018-Jun-17 06:30N 47°34' W 052°42'0 0.0
2018-Jun-17 05:57N 47°34' W 052°42'0 0.0
2018-Jun-17 05:21N 47°34' W 052°42'0 0.0
2018-Jun-17 04:57N 47°34' W 052°42'0 0.0
2018-Jun-17 04:24N 47°34' W 052°42'0 0.0
2018-Jun-17 04:00N 47°34' W 052°42'0 0.0
2018-Jun-17 03:27N 47°34' W 052°42'0 0.0
2018-Jun-17 02:51N 47°34' W 052°42'0 0.0
2018-Jun-17 02:27N 47°34' W 052°42'0 0.0
2018-Jun-17 02:00N 47°34' W 052°42'0 0.0
2018-Jun-17 01:30N 47°34' W 052°42'0 0.0
2018-Jun-17 00:48N 47°34' W 052°42'0 0.0
2018-Jun-17 00:27N 47°34' W 052°42'0 0.0
2018-Jun-16 23:57N 47°34' W 052°42'0 0.0
2018-Jun-16 23:27N 47°34' W 052°42'0 0.0
2018-Jun-16 22:57N 47°34' W 052°42'0 0.0
2018-Jun-16 22:27N 47°34' W 052°42'0 0.0
2018-Jun-16 21:57N 47°34' W 052°42'0 0.0
2018-Jun-16 21:21N 47°34' W 052°42'0 0.0
2018-Jun-16 20:51N 47°34' W 052°42'0 0.0
2018-Jun-16 17:27N 47°34' W 052°42'0 0.0
2018-Jun-16 17:00N 47°34' W 052°42'0 0.0
2018-Jun-16 16:30N 47°34' W 052°42'0 0.0
2018-Jun-16 16:00N 47°34' W 052°42'0 0.0
2018-Jun-16 15:21N 47°34' W 052°42'0 0.0
2018-Jun-16 15:00N 47°34' W 052°42'0 0.0
2018-Jun-16 14:24N 47°34' W 052°42'0 0.0
2018-Jun-16 13:03N 47°34' W 052°42'0 0.0
2018-Jun-16 12:57N 47°34' W 052°42'0 0.0
2018-Jun-16 11:57N 47°34' W 052°42'0 0.0
2018-Jun-16 11:30N 47°34' W 052°42'0 0.0
2018-Jun-16 10:54N 47°34' W 052°42'0 0.0
2018-Jun-16 10:27N 47°34' W 052°42'0 0.0
2018-Jun-16 09:57N 47°34' W 052°42'0 0.0
2018-Jun-16 09:24N 47°34' W 052°42'0 0.0
2018-Jun-16 09:00N 47°34' W 052°42'0 0.0
2018-Jun-16 08:30N 47°34' W 052°42'0 0.0
2018-Jun-16 07:54N 47°34' W 052°42'0 0.0
2018-Jun-16 07:27N 47°34' W 052°42'0 0.0
2018-Jun-16 06:57N 47°34' W 052°42'0 0.0
2018-Jun-16 06:30N 47°34' W 052°42'0 0.0
2018-Jun-16 05:57N 47°34' W 052°42'0 0.0
2018-Jun-16 05:27N 47°34' W 052°42'0 0.0
2018-Jun-16 05:00N 47°34' W 052°42'0 0.0
2018-Jun-16 04:30N 47°34' W 052°42'0 0.0
2018-Jun-16 04:00N 47°34' W 052°42'0 0.0
2018-Jun-16 03:27N 47°34' W 052°42'0 0.0
2018-Jun-16 02:57N 47°34' W 052°42'0 0.0
2018-Jun-16 02:24N 47°34' W 052°42'0 0.0
2018-Jun-16 02:00N 47°34' W 052°42'0 0.0
2018-Jun-16 01:30N 47°34' W 052°42'0 0.0
2018-Jun-16 01:00N 47°34' W 052°42'0 0.0
2018-Jun-16 00:24N 47°34' W 052°42'0 0.0
2018-Jun-16 00:00N 47°34' W 052°42'0 0.0
2018-Jun-15 23:24N 47°34' W 052°42'0 0.0
2018-Jun-15 23:00N 47°34' W 052°42'0 0.0
2018-Jun-15 22:30N 47°34' W 052°42'0 0.0
2018-Jun-15 21:03N 47°34' W 052°42'0 0.0
2018-Jun-15 20:57N 47°34' W 052°42'0 0.0
2018-Jun-15 20:12N 47°34' W 052°42'0 0.0
2018-Jun-15 19:42N 47°34' W 052°42'0 0.0
2018-Jun-15 19:30N 47°34' W 052°42'0 0.0
2018-Jun-15 19:00N 47°34' W 052°42'0 0.0
2018-Jun-15 16:24N 47°34' W 052°42'0 0.0
2018-Jun-15 15:57N 47°34' W 052°42'0 0.0
2018-Jun-15 15:21N 47°34' W 052°42'0 0.0
2018-Jun-15 14:57N 47°34' W 052°42'0 0.0
2018-Jun-15 14:30N 47°34' W 052°42'0 0.0
2018-Jun-15 14:00N 47°34' W 052°42'0 0.0
2018-Jun-15 13:27N 47°34' W 052°42'0 0.0
2018-Jun-15 13:00N 47°34' W 052°42'0 0.1
2018-Jun-15 12:24N 47°34' W 052°42'0 0.2
2018-Jun-15 12:00N 47°34' W 052°42'0 0.0
2018-Jun-15 11:30N 47°34' W 052°42'0 0.0
2018-Jun-15 11:00N 47°34' W 052°42'0 0.0
2018-Jun-15 10:30N 47°34' W 052°42'1 1.4
2018-Jun-15 09:59N 47°34' W 052°41'510.5
2018-Jun-15 09:29N 47°34' W 052°33'611.0
2018-Jun-15 08:58N 47°33' W 052°25'612.1
2018-Jun-15 08:28N 47°32' W 052°16'  
2018-Jun-12 23:21N 47°34' W 051°59'513.1
2018-Jun-12 22:57N 47°34' W 052°07'613.2
2018-Jun-12 22:31N 47°34' W 052°15'713.1
2018-Jun-12 22:00N 47°34' W 052°25'712.8
2018-Jun-12 21:29N 47°34' W 052°35'5 7.8
2018-Jun-12 20:53N 47°34' W 052°42'0 0.0
2018-Jun-12 20:29N 47°34' W 052°42'0 0.0
2018-Jun-12 19:59N 47°34' W 052°42'0 0.0
2018-Jun-12 19:26N 47°34' W 052°42'0 0.0
2018-Jun-12 19:00N 47°34' W 052°42'0 0.0
2018-Jun-12 18:29N 47°34' W 052°42'0 0.0
2018-Jun-12 17:59N 47°34' W 052°42'0 0.0
2018-Jun-12 17:29N 47°34' W 052°42'0 0.0
2018-Jun-12 16:58N 47°34' W 052°42'0 0.0
2018-Jun-12 16:27N 47°34' W 052°42'0 0.0
2018-Jun-12 15:56N 47°34' W 052°42'0 0.0
2018-Jun-12 15:25N 47°34' W 052°42'0 0.0
2018-Jun-12 15:00N 47°34' W 052°42'0 0.7
2018-Jun-12 14:29N 47°34' W 052°42'611.8
2018-Jun-12 13:57N 47°33' W 052°32'612.7
2018-Jun-12 13:27N 47°33' W 052°23'  
2018-Jun-08 22:44N 47°34' W 051°60'413.0
2018-Jun-08 22:26N 47°34' W 052°06'612.9
2018-Jun-08 22:00N 47°34' W 052°14'612.6
2018-Jun-08 21:29N 47°34' W 052°23'712.7
2018-Jun-08 20:54N 47°34' W 052°34'511.5
2018-Jun-08 20:29N 47°34' W 052°42'0 0.6
2018-Jun-08 19:58N 47°34' W 052°42'0 0.0
2018-Jun-08 19:28N 47°34' W 052°42'0 0.0
2018-Jun-08 18:52N 47°34' W 052°42'0 0.0
2018-Jun-08 18:28N 47°34' W 052°42'0 0.0
2018-Jun-08 17:58N 47°34' W 052°42'0 0.0
2018-Jun-08 17:28N 47°34' W 052°42'0 0.0
2018-Jun-08 16:58N 47°34' W 052°42'0 0.0
2018-Jun-08 16:19N 47°34' W 052°42'0 0.0
2018-Jun-08 15:55N 47°34' W 052°42'0 0.0
2018-Jun-08 15:28N 47°34' W 052°42'0 0.0
2018-Jun-08 14:55N 47°34' W 052°42'0 0.0
2018-Jun-08 14:22N 47°34' W 052°42'0 0.0
2018-Jun-08 13:58N 47°34' W 052°42'0 0.0
2018-Jun-08 13:28N 47°34' W 052°42'0 0.0
2018-Jun-08 12:46N 47°34' W 052°42'0 0.0
2018-Jun-08 12:25N 47°34' W 052°42'0 0.0
2018-Jun-08 11:55N 47°34' W 052°42'0 0.0
2018-Jun-08 11:28N 47°34' W 052°42'0 0.0
2018-Jun-08 10:58N 47°34' W 052°42'0 0.0
2018-Jun-08 10:22N 47°34' W 052°42'0 0.0
2018-Jun-08 09:58N 47°34' W 052°42'0 0.0
2018-Jun-08 09:28N 47°34' W 052°42'0 0.0
2018-Jun-08 08:58N 47°34' W 052°42'0 0.0
2018-Jun-08 08:28N 47°34' W 052°42'0 0.0
2018-Jun-08 07:55N 47°34' W 052°42'0 0.0
2018-Jun-08 07:28N 47°34' W 052°42'0 0.0
2018-Jun-08 06:58N 47°34' W 052°42'0 0.0
2018-Jun-08 06:28N 47°34' W 052°42'0 0.0
2018-Jun-08 05:58N 47°34' W 052°42'0 0.0
2018-Jun-08 05:28N 47°34' W 052°42'0 0.0
2018-Jun-08 04:58N 47°34' W 052°42'0 0.0
2018-Jun-08 04:28N 47°34' W 052°42'0 0.0
2018-Jun-08 03:55N 47°34' W 052°42'0 0.0
2018-Jun-08 03:25N 47°34' W 052°42'0 0.0
2018-Jun-08 02:58N 47°34' W 052°42'0 0.0
2018-Jun-08 02:28N 47°34' W 052°42'0 0.0
2018-Jun-08 01:58N 47°34' W 052°42'  

Dump ship's entire track history